sensor_id;sensor_type;location;lat;lon;timestamp;temperature;humidity
18888;DHT22;9576;47.792;9.628;2022-07-10T00:00:02;17.80;99.90
18888;DHT22;9576;47.792;9.628;2022-07-10T00:03:05;17.80;99.90
18888;DHT22;9576;47.792;9.628;2022-07-10T00:06:07;17.70;99.90
18888;DHT22;9576;47.792;9.628;2022-07-10T00:09:10;17.80;99.90
18888;DHT22;9576;47.792;9.628;2022-07-10T00:12:14;17.70;99.90
18888;DHT22;9576;47.792;9.628;2022-07-10T00:15:17;17.80;99.90
18888;DHT22;9576;47.792;9.628;2022-07-10T00:18:20;17.70;99.90
18888;DHT22;9576;47.792;9.628;2022-07-10T00:21:23;17.80;99.90
18888;DHT22;9576;47.792;9.628;2022-07-10T00:24:25;17.50;99.90
18888;DHT22;9576;47.792;9.628;2022-07-10T00:27:29;17.50;99.90
18888;DHT22;9576;47.792;9.628;2022-07-10T00:30:31;17.50;99.90
18888;DHT22;9576;47.792;9.628;2022-07-10T00:33:33;17.50;99.90
18888;DHT22;9576;47.792;9.628;2022-07-10T00:36:36;17.60;99.90
18888;DHT22;9576;47.792;9.628;2022-07-10T00:39:38;17.60;99.90
18888;DHT22;9576;47.792;9.628;2022-07-10T00:42:42;17.70;99.90
18888;DHT22;9576;47.792;9.628;2022-07-10T00:45:44;17.60;99.90
18888;DHT22;9576;47.792;9.628;2022-07-10T00:48:46;17.60;99.90
18888;DHT22;9576;47.792;9.628;2022-07-10T00:51:49;17.60;99.90
18888;DHT22;9576;47.792;9.628;2022-07-10T00:54:51;17.60;99.90
18888;DHT22;9576;47.792;9.628;2022-07-10T00:57:54;17.60;99.90
18888;DHT22;9576;47.792;9.628;2022-07-10T01:00:57;17.40;99.90
18888;DHT22;9576;47.792;9.628;2022-07-10T01:03:59;17.30;99.90
18888;DHT22;9576;47.792;9.628;2022-07-10T01:07:01;17.30;99.90
18888;DHT22;9576;47.792;9.628;2022-07-10T01:10:03;17.20;99.90
18888;DHT22;9576;47.792;9.628;2022-07-10T01:13:07;17.30;99.90
18888;DHT22;9576;47.792;9.628;2022-07-10T01:16:10;17.20;99.90
18888;DHT22;9576;47.792;9.628;2022-07-10T01:19:12;17.10;99.90
18888;DHT22;9576;47.792;9.628;2022-07-10T01:22:15;17.10;99.90
18888;DHT22;9576;47.792;9.628;2022-07-10T01:25:17;17.00;99.90
18888;DHT22;9576;47.792;9.628;2022-07-10T01:28:20;16.90;99.90
18888;DHT22;9576;47.792;9.628;2022-07-10T01:31:25;16.90;99.90
18888;DHT22;9576;47.792;9.628;2022-07-10T01:34:28;16.90;99.90
18888;DHT22;9576;47.792;9.628;2022-07-10T01:37:31;16.90;99.90
18888;DHT22;9576;47.792;9.628;2022-07-10T01:40:33;17.00;99.90
18888;DHT22;9576;47.792;9.628;2022-07-10T01:43:35;16.90;99.90
18888;DHT22;9576;47.792;9.628;2022-07-10T01:46:43;17.00;99.90
18888;DHT22;9576;47.792;9.628;2022-07-10T01:49:45;17.00;99.90
18888;DHT22;9576;47.792;9.628;2022-07-10T01:52:48;17.00;99.90
18888;DHT22;9576;47.792;9.628;2022-07-10T01:55:50;16.90;99.90
18888;DHT22;9576;47.792;9.628;2022-07-10T01:58:52;16.90;99.90
18888;DHT22;9576;47.792;9.628;2022-07-10T02:01:54;16.80;99.90
18888;DHT22;9576;47.792;9.628;2022-07-10T02:04:56;16.80;99.90
18888;DHT22;9576;47.792;9.628;2022-07-10T02:07:59;16.80;99.90
18888;DHT22;9576;47.792;9.628;2022-07-10T02:11:01;16.80;99.90
18888;DHT22;9576;47.792;9.628;2022-07-10T02:14:03;16.80;99.90
18888;DHT22;9576;47.792;9.628;2022-07-10T02:17:05;16.90;99.90
18888;DHT22;9576;47.792;9.628;2022-07-10T02:20:08;16.80;99.90
18888;DHT22;9576;47.792;9.628;2022-07-10T02:23:12;16.90;99.90
18888;DHT22;9576;47.792;9.628;2022-07-10T02:26:14;16.90;99.90
18888;DHT22;9576;47.792;9.628;2022-07-10T02:29:16;16.90;99.90
18888;DHT22;9576;47.792;9.628;2022-07-10T02:32:19;16.90;99.90
18888;DHT22;9576;47.792;9.628;2022-07-10T02:35:21;16.80;99.90
18888;DHT22;9576;47.792;9.628;2022-07-10T02:38:24;16.80;99.90
18888;DHT22;9576;47.792;9.628;2022-07-10T02:41:26;16.80;99.90
18888;DHT22;9576;47.792;9.628;2022-07-10T02:44:28;16.80;99.90
18888;DHT22;9576;47.792;9.628;2022-07-10T02:47:30;16.70;99.90
18888;DHT22;9576;47.792;9.628;2022-07-10T02:50:32;16.70;99.90
18888;DHT22;9576;47.792;9.628;2022-07-10T02:53:36;16.60;99.90
18888;DHT22;9576;47.792;9.628;2022-07-10T02:56:38;16.60;99.90
18888;DHT22;9576;47.792;9.628;2022-07-10T02:59:40;16.60;99.90
18888;DHT22;9576;47.792;9.628;2022-07-10T03:02:42;16.60;99.90
18888;DHT22;9576;47.792;9.628;2022-07-10T03:05:44;16.60;99.90
18888;DHT22;9576;47.792;9.628;2022-07-10T03:08:47;16.50;99.90
18888;DHT22;9576;47.792;9.628;2022-07-10T03:11:49;16.50;99.90
18888;DHT22;9576;47.792;9.628;2022-07-10T03:14:51;16.50;99.90
18888;DHT22;9576;47.792;9.628;2022-07-10T03:17:53;16.50;99.90
18888;DHT22;9576;47.792;9.628;2022-07-10T03:20:55;16.50;99.90
18888;DHT22;9576;47.792;9.628;2022-07-10T03:23:58;16.50;99.90
18888;DHT22;9576;47.792;9.628;2022-07-10T03:27:00;16.40;99.90
18888;DHT22;9576;47.792;9.628;2022-07-10T03:30:03;16.40;99.90
18888;DHT22;9576;47.792;9.628;2022-07-10T03:33:05;16.30;99.90
18888;DHT22;9576;47.792;9.628;2022-07-10T03:36:08;16.40;99.90
18888;DHT22;9576;47.792;9.628;2022-07-10T03:39:11;16.40;99.90
18888;DHT22;9576;47.792;9.628;2022-07-10T03:42:13;16.50;99.90
18888;DHT22;9576;47.792;9.628;2022-07-10T03:45:15;16.60;99.90
18888;DHT22;9576;47.792;9.628;2022-07-10T03:48:17;16.60;99.90
18888;DHT22;9576;47.792;9.628;2022-07-10T03:51:19;16.60;99.90
18888;DHT22;9576;47.792;9.628;2022-07-10T03:54:23;16.70;99.90
18888;DHT22;9576;47.792;9.628;2022-07-10T03:57:25;16.70;99.90
18888;DHT22;9576;47.792;9.628;2022-07-10T04:00:44;16.80;99.90
18888;DHT22;9576;47.792;9.628;2022-07-10T04:03:46;16.80;99.90
18888;DHT22;9576;47.792;9.628;2022-07-10T04:06:48;16.70;99.90
18888;DHT22;9576;47.792;9.628;2022-07-10T04:09:51;16.80;99.90
18888;DHT22;9576;47.792;9.628;2022-07-10T04:12:54;16.90;99.90
18888;DHT22;9576;47.792;9.628;2022-07-10T04:15:56;16.90;99.90
18888;DHT22;9576;47.792;9.628;2022-07-10T04:18:58;16.80;99.90
18888;DHT22;9576;47.792;9.628;2022-07-10T04:22:00;16.90;99.90
18888;DHT22;9576;47.792;9.628;2022-07-10T04:25:04;16.90;99.90
18888;DHT22;9576;47.792;9.628;2022-07-10T04:28:06;17.00;99.90
18888;DHT22;9576;47.792;9.628;2022-07-10T04:31:08;17.00;99.90
18888;DHT22;9576;47.792;9.628;2022-07-10T04:34:10;17.10;99.90
18888;DHT22;9576;47.792;9.628;2022-07-10T04:37:12;17.10;99.90
18888;DHT22;9576;47.792;9.628;2022-07-10T04:40:16;17.10;99.90
18888;DHT22;9576;47.792;9.628;2022-07-10T04:43:18;17.20;99.90
18888;DHT22;9576;47.792;9.628;2022-07-10T04:46:20;17.20;99.90
18888;DHT22;9576;47.792;9.628;2022-07-10T04:49:22;17.20;99.90
18888;DHT22;9576;47.792;9.628;2022-07-10T04:52:24;17.10;99.90
18888;DHT22;9576;47.792;9.628;2022-07-10T04:55:27;17.20;99.90
18888;DHT22;9576;47.792;9.628;2022-07-10T04:58:29;17.20;99.90
18888;DHT22;9576;47.792;9.628;2022-07-10T05:01:31;17.20;99.90
18888;DHT22;9576;47.792;9.628;2022-07-10T05:04:33;17.20;99.90
18888;DHT22;9576;47.792;9.628;2022-07-10T05:07:35;17.20;99.90
18888;DHT22;9576;47.792;9.628;2022-07-10T05:10:39;17.30;99.90
18888;DHT22;9576;47.792;9.628;2022-07-10T05:13:41;17.30;99.90
18888;DHT22;9576;47.792;9.628;2022-07-10T05:16:45;17.30;99.90
18888;DHT22;9576;47.792;9.628;2022-07-10T05:19:47;17.30;99.90
18888;DHT22;9576;47.792;9.628;2022-07-10T05:22:52;17.30;99.90
18888;DHT22;9576;47.792;9.628;2022-07-10T05:25:55;17.20;99.90
18888;DHT22;9576;47.792;9.628;2022-07-10T05:28:57;17.30;99.90
18888;DHT22;9576;47.792;9.628;2022-07-10T05:31:59;17.20;99.90
18888;DHT22;9576;47.792;9.628;2022-07-10T05:35:01;17.20;99.90
18888;DHT22;9576;47.792;9.628;2022-07-10T05:38:03;17.20;99.90
18888;DHT22;9576;47.792;9.628;2022-07-10T05:41:07;17.20;99.90
18888;DHT22;9576;47.792;9.628;2022-07-10T05:44:09;17.10;99.90
18888;DHT22;9576;47.792;9.628;2022-07-10T05:47:11;17.20;99.90
18888;DHT22;9576;47.792;9.628;2022-07-10T05:50:13;17.20;99.90
18888;DHT22;9576;47.792;9.628;2022-07-10T05:53:15;17.40;99.90
18888;DHT22;9576;47.792;9.628;2022-07-10T05:56:21;17.50;99.90
18888;DHT22;9576;47.792;9.628;2022-07-10T05:59:23;17.50;99.90
18888;DHT22;9576;47.792;9.628;2022-07-10T06:02:24;17.50;99.90
18888;DHT22;9576;47.792;9.628;2022-07-10T06:05:27;17.40;99.90
18888;DHT22;9576;47.792;9.628;2022-07-10T06:08:29;17.40;99.90
18888;DHT22;9576;47.792;9.628;2022-07-10T06:11:32;17.40;99.90
18888;DHT22;9576;47.792;9.628;2022-07-10T06:14:34;17.40;99.90
18888;DHT22;9576;47.792;9.628;2022-07-10T06:17:36;17.40;99.90
18888;DHT22;9576;47.792;9.628;2022-07-10T06:20:38;17.50;99.90
18888;DHT22;9576;47.792;9.628;2022-07-10T06:23:40;17.60;99.90
18888;DHT22;9576;47.792;9.628;2022-07-10T06:26:44;17.70;99.90
18888;DHT22;9576;47.792;9.628;2022-07-10T06:29:46;17.70;99.90
18888;DHT22;9576;47.792;9.628;2022-07-10T06:32:48;17.80;99.90
18888;DHT22;9576;47.792;9.628;2022-07-10T06:35:50;18.00;99.90
18888;DHT22;9576;47.792;9.628;2022-07-10T06:38:52;18.10;99.90
18888;DHT22;9576;47.792;9.628;2022-07-10T06:41:55;18.30;99.90
18888;DHT22;9576;47.792;9.628;2022-07-10T06:44:57;18.30;99.90
18888;DHT22;9576;47.792;9.628;2022-07-10T06:47:59;18.30;99.90
18888;DHT22;9576;47.792;9.628;2022-07-10T06:51:01;18.50;99.90
18888;DHT22;9576;47.792;9.628;2022-07-10T06:54:03;18.40;99.90
18888;DHT22;9576;47.792;9.628;2022-07-10T06:57:06;18.40;99.90
18888;DHT22;9576;47.792;9.628;2022-07-10T07:00:09;18.40;99.90
18888;DHT22;9576;47.792;9.628;2022-07-10T07:03:11;18.50;99.90
18888;DHT22;9576;47.792;9.628;2022-07-10T07:06:13;18.60;99.90
18888;DHT22;9576;47.792;9.628;2022-07-10T07:09:15;18.60;99.90
18888;DHT22;9576;47.792;9.628;2022-07-10T07:12:19;18.60;99.90
18888;DHT22;9576;47.792;9.628;2022-07-10T07:15:21;18.80;99.90
18888;DHT22;9576;47.792;9.628;2022-07-10T07:18:24;18.80;99.90
18888;DHT22;9576;47.792;9.628;2022-07-10T07:21:32;18.90;99.90
18888;DHT22;9576;47.792;9.628;2022-07-10T07:24:52;19.10;99.90
18888;DHT22;9576;47.792;9.628;2022-07-10T07:27:55;19.00;99.90
18888;DHT22;9576;47.792;9.628;2022-07-10T07:30:57;19.10;99.90
18888;DHT22;9576;47.792;9.628;2022-07-10T07:34:00;19.10;99.90
18888;DHT22;9576;47.792;9.628;2022-07-10T07:37:02;19.10;99.90
18888;DHT22;9576;47.792;9.628;2022-07-10T07:40:06;19.10;99.90
18888;DHT22;9576;47.792;9.628;2022-07-10T07:43:09;19.00;99.90
18888;DHT22;9576;47.792;9.628;2022-07-10T07:46:12;19.00;99.90
18888;DHT22;9576;47.792;9.628;2022-07-10T07:49:14;19.00;99.90
18888;DHT22;9576;47.792;9.628;2022-07-10T07:52:16;19.10;99.90
18888;DHT22;9576;47.792;9.628;2022-07-10T07:55:18;19.00;99.90
18888;DHT22;9576;47.792;9.628;2022-07-10T07:58:22;19.10;99.90
18888;DHT22;9576;47.792;9.628;2022-07-10T08:01:24;19.30;99.90
18888;DHT22;9576;47.792;9.628;2022-07-10T08:04:26;19.40;99.90
18888;DHT22;9576;47.792;9.628;2022-07-10T08:07:35;19.50;99.90
18888;DHT22;9576;47.792;9.628;2022-07-10T08:10:38;19.50;99.90
18888;DHT22;9576;47.792;9.628;2022-07-10T08:13:41;19.50;99.90
18888;DHT22;9576;47.792;9.628;2022-07-10T08:16:43;19.60;99.90
18888;DHT22;9576;47.792;9.628;2022-07-10T08:19:45;19.70;99.90
18888;DHT22;9576;47.792;9.628;2022-07-10T08:22:48;19.80;99.90
18888;DHT22;9576;47.792;9.628;2022-07-10T08:25:50;19.70;99.90
18888;DHT22;9576;47.792;9.628;2022-07-10T08:28:53;19.70;99.90
18888;DHT22;9576;47.792;9.628;2022-07-10T08:31:55;19.90;99.90
18888;DHT22;9576;47.792;9.628;2022-07-10T08:34:57;20.10;99.90
18888;DHT22;9576;47.792;9.628;2022-07-10T08:38:00;20.20;99.90
18888;DHT22;9576;47.792;9.628;2022-07-10T08:41:05;20.40;99.90
18888;DHT22;9576;47.792;9.628;2022-07-10T08:44:09;20.60;99.90
18888;DHT22;9576;47.792;9.628;2022-07-10T08:47:11;20.60;99.90
18888;DHT22;9576;47.792;9.628;2022-07-10T08:50:16;20.50;99.90
18888;DHT22;9576;47.792;9.628;2022-07-10T08:53:27;20.30;99.90
18888;DHT22;9576;47.792;9.628;2022-07-10T08:56:31;20.30;99.90
18888;DHT22;9576;47.792;9.628;2022-07-10T08:59:35;20.40;99.90
18888;DHT22;9576;47.792;9.628;2022-07-10T09:02:37;20.50;99.90
18888;DHT22;9576;47.792;9.628;2022-07-10T09:05:39;20.70;99.90
18888;DHT22;9576;47.792;9.628;2022-07-10T09:08:58;20.80;99.90
18888;DHT22;9576;47.792;9.628;2022-07-10T09:12:00;20.80;99.90
18888;DHT22;9576;47.792;9.628;2022-07-10T09:15:16;20.60;99.90
18888;DHT22;9576;47.792;9.628;2022-07-10T09:18:21;20.80;99.90
18888;DHT22;9576;47.792;9.628;2022-07-10T09:21:25;21.10;99.90
18888;DHT22;9576;47.792;9.628;2022-07-10T09:24:37;21.30;99.90
18888;DHT22;9576;47.792;9.628;2022-07-10T09:27:51;21.30;99.90
18888;DHT22;9576;47.792;9.628;2022-07-10T09:30:56;21.30;99.90
18888;DHT22;9576;47.792;9.628;2022-07-10T09:33:58;21.50;99.90
18888;DHT22;9576;47.792;9.628;2022-07-10T09:37:17;21.70;99.90
18888;DHT22;9576;47.792;9.628;2022-07-10T09:40:19;21.80;99.90
18888;DHT22;9576;47.792;9.628;2022-07-10T09:43:21;22.00;99.90
18888;DHT22;9576;47.792;9.628;2022-07-10T09:46:30;22.20;99.90
18888;DHT22;9576;47.792;9.628;2022-07-10T09:49:32;22.40;99.90
18888;DHT22;9576;47.792;9.628;2022-07-10T09:52:35;22.60;99.90
18888;DHT22;9576;47.792;9.628;2022-07-10T09:55:37;22.60;99.90
18888;DHT22;9576;47.792;9.628;2022-07-10T09:58:40;22.50;99.90
18888;DHT22;9576;47.792;9.628;2022-07-10T10:01:45;22.50;99.90
18888;DHT22;9576;47.792;9.628;2022-07-10T10:04:48;22.60;99.90
18888;DHT22;9576;47.792;9.628;2022-07-10T10:07:51;22.80;99.90
18888;DHT22;9576;47.792;9.628;2022-07-10T10:10:53;22.90;99.90
18888;DHT22;9576;47.792;9.628;2022-07-10T10:13:58;22.70;99.90
18888;DHT22;9576;47.792;9.628;2022-07-10T10:17:02;22.20;99.90
18888;DHT22;9576;47.792;9.628;2022-07-10T10:20:07;21.70;99.90
18888;DHT22;9576;47.792;9.628;2022-07-10T10:23:28;21.40;99.90
18888;DHT22;9576;47.792;9.628;2022-07-10T10:26:30;21.50;99.90
18888;DHT22;9576;47.792;9.628;2022-07-10T10:29:34;21.90;99.90
18888;DHT22;9576;47.792;9.628;2022-07-10T10:32:41;22.10;99.90
18888;DHT22;9576;47.792;9.628;2022-07-10T10:35:44;22.50;99.90
18888;DHT22;9576;47.792;9.628;2022-07-10T10:39:10;22.80;99.90
18888;DHT22;9576;47.792;9.628;2022-07-10T10:42:32;22.80;99.90
18888;DHT22;9576;47.792;9.628;2022-07-10T10:45:34;22.60;99.90
18888;DHT22;9576;47.792;9.628;2022-07-10T10:49:03;22.50;99.90
18888;DHT22;9576;47.792;9.628;2022-07-10T10:52:09;22.40;99.90
18888;DHT22;9576;47.792;9.628;2022-07-10T10:55:11;22.40;99.90
18888;DHT22;9576;47.792;9.628;2022-07-10T10:58:16;22.30;99.90
18888;DHT22;9576;47.792;9.628;2022-07-10T11:01:24;22.30;99.90
18888;DHT22;9576;47.792;9.628;2022-07-10T11:04:28;22.40;99.90
18888;DHT22;9576;47.792;9.628;2022-07-10T11:07:51;22.50;99.90
18888;DHT22;9576;47.792;9.628;2022-07-10T11:10:53;22.80;99.90
18888;DHT22;9576;47.792;9.628;2022-07-10T11:13:57;23.10;99.90
18888;DHT22;9576;47.792;9.628;2022-07-10T11:16:59;23.50;99.90
18888;DHT22;9576;47.792;9.628;2022-07-10T11:20:03;23.60;99.90
18888;DHT22;9576;47.792;9.628;2022-07-10T11:23:24;23.80;99.90
18888;DHT22;9576;47.792;9.628;2022-07-10T11:26:34;23.60;99.90
18888;DHT22;9576;47.792;9.628;2022-07-10T11:29:37;23.20;99.90
18888;DHT22;9576;47.792;9.628;2022-07-10T11:32:40;23.10;99.90
18888;DHT22;9576;47.792;9.628;2022-07-10T11:35:46;22.80;99.90
18888;DHT22;9576;47.792;9.628;2022-07-10T11:38:48;22.40;99.90
18888;DHT22;9576;47.792;9.628;2022-07-10T11:41:57;22.20;99.90
18888;DHT22;9576;47.792;9.628;2022-07-10T11:44:59;22.40;99.90
18888;DHT22;9576;47.792;9.628;2022-07-10T11:48:01;22.90;99.90
18888;DHT22;9576;47.792;9.628;2022-07-10T11:51:21;22.90;99.90
18888;DHT22;9576;47.792;9.628;2022-07-10T11:54:25;22.80;99.90
18888;DHT22;9576;47.792;9.628;2022-07-10T11:57:27;22.60;99.90
18888;DHT22;9576;47.792;9.628;2022-07-10T12:00:31;22.30;99.90
18888;DHT22;9576;47.792;9.628;2022-07-10T12:03:33;22.30;99.90
18888;DHT22;9576;47.792;9.628;2022-07-10T12:06:37;22.50;99.90
18888;DHT22;9576;47.792;9.628;2022-07-10T12:09:40;23.00;99.90
18888;DHT22;9576;47.792;9.628;2022-07-10T12:12:42;23.30;99.90
18888;DHT22;9576;47.792;9.628;2022-07-10T12:15:45;23.20;99.90
18888;DHT22;9576;47.792;9.628;2022-07-10T12:18:47;23.00;99.90
18888;DHT22;9576;47.792;9.628;2022-07-10T12:21:52;22.60;99.90
18888;DHT22;9576;47.792;9.628;2022-07-10T12:24:54;22.60;99.90
18888;DHT22;9576;47.792;9.628;2022-07-10T12:27:57;22.70;99.90
18888;DHT22;9576;47.792;9.628;2022-07-10T12:30:59;22.80;99.90
18888;DHT22;9576;47.792;9.628;2022-07-10T12:34:03;23.00;99.90
18888;DHT22;9576;47.792;9.628;2022-07-10T12:37:11;23.40;99.90
18888;DHT22;9576;47.792;9.628;2022-07-10T12:40:31;24.00;99.90
18888;DHT22;9576;47.792;9.628;2022-07-10T12:43:33;23.80;99.90
18888;DHT22;9576;47.792;9.628;2022-07-10T12:46:35;23.80;99.90
18888;DHT22;9576;47.792;9.628;2022-07-10T12:49:51;23.40;99.90
18888;DHT22;9576;47.792;9.628;2022-07-10T12:53:11;23.00;99.90
18888;DHT22;9576;47.792;9.628;2022-07-10T12:56:35;23.60;99.90
18888;DHT22;9576;47.792;9.628;2022-07-10T12:59:37;24.60;99.90
18888;DHT22;9576;47.792;9.628;2022-07-10T13:02:39;25.50;99.60
18888;DHT22;9576;47.792;9.628;2022-07-10T13:05:42;25.40;99.90
18888;DHT22;9576;47.792;9.628;2022-07-10T13:08:46;25.50;99.90
18888;DHT22;9576;47.792;9.628;2022-07-10T13:11:49;25.50;99.90
18888;DHT22;9576;47.792;9.628;2022-07-10T13:14:51;25.20;99.80
18888;DHT22;9576;47.792;9.628;2022-07-10T13:17:53;24.90;99.90
18888;DHT22;9576;47.792;9.628;2022-07-10T13:20:56;24.80;99.90
18888;DHT22;9576;47.792;9.628;2022-07-10T13:24:00;24.50;99.40
18888;DHT22;9576;47.792;9.628;2022-07-10T13:27:03;24.20;99.80
18888;DHT22;9576;47.792;9.628;2022-07-10T13:30:06;24.60;99.90
18888;DHT22;9576;47.792;9.628;2022-07-10T13:33:20;25.00;99.90
18888;DHT22;9576;47.792;9.628;2022-07-10T13:36:27;25.20;98.90
18888;DHT22;9576;47.792;9.628;2022-07-10T13:39:31;25.20;98.00
18888;DHT22;9576;47.792;9.628;2022-07-10T13:42:33;25.00;99.60
18888;DHT22;9576;47.792;9.628;2022-07-10T13:45:36;24.50;98.90
18888;DHT22;9576;47.792;9.628;2022-07-10T13:48:43;24.50;99.00
18888;DHT22;9576;47.792;9.628;2022-07-10T13:51:45;24.50;99.80
18888;DHT22;9576;47.792;9.628;2022-07-10T13:54:49;25.40;99.90
18888;DHT22;9576;47.792;9.628;2022-07-10T13:57:51;25.70;98.50
18888;DHT22;9576;47.792;9.628;2022-07-10T14:00:53;25.70;97.30
18888;DHT22;9576;47.792;9.628;2022-07-10T14:03:56;25.10;97.50
18888;DHT22;9576;47.792;9.628;2022-07-10T14:06:58;24.50;98.90
18888;DHT22;9576;47.792;9.628;2022-07-10T14:10:01;24.10;99.90
18888;DHT22;9576;47.792;9.628;2022-07-10T14:13:03;23.90;99.60
18888;DHT22;9576;47.792;9.628;2022-07-10T14:16:06;23.70;99.90
18888;DHT22;9576;47.792;9.628;2022-07-10T14:19:08;23.60;99.90
18888;DHT22;9576;47.792;9.628;2022-07-10T14:22:10;23.60;99.00
18888;DHT22;9576;47.792;9.628;2022-07-10T14:25:14;23.70;99.10
18888;DHT22;9576;47.792;9.628;2022-07-10T14:28:16;23.90;99.90
18888;DHT22;9576;47.792;9.628;2022-07-10T14:31:18;23.90;98.20
18888;DHT22;9576;47.792;9.628;2022-07-10T14:34:20;23.60;99.20
18888;DHT22;9576;47.792;9.628;2022-07-10T14:37:24;23.30;99.90
18888;DHT22;9576;47.792;9.628;2022-07-10T14:40:28;23.00;98.80
18888;DHT22;9576;47.792;9.628;2022-07-10T14:43:31;23.00;99.50
18888;DHT22;9576;47.792;9.628;2022-07-10T14:46:34;23.10;98.60
18888;DHT22;9576;47.792;9.628;2022-07-10T14:49:36;23.40;98.90
18888;DHT22;9576;47.792;9.628;2022-07-10T14:52:38;23.70;97.30
18888;DHT22;9576;47.792;9.628;2022-07-10T14:55:41;24.80;99.80
18888;DHT22;9576;47.792;9.628;2022-07-10T14:58:43;25.90;96.60
18888;DHT22;9576;47.792;9.628;2022-07-10T15:01:45;25.90;97.70
18888;DHT22;9576;47.792;9.628;2022-07-10T15:04:47;25.90;97.40
18888;DHT22;9576;47.792;9.628;2022-07-10T15:07:49;25.50;96.80
18888;DHT22;9576;47.792;9.628;2022-07-10T15:10:52;24.60;95.40
18888;DHT22;9576;47.792;9.628;2022-07-10T15:13:55;24.00;96.80
18888;DHT22;9576;47.792;9.628;2022-07-10T15:17:00;23.50;96.70
18888;DHT22;9576;47.792;9.628;2022-07-10T15:20:03;23.10;97.90
18888;DHT22;9576;47.792;9.628;2022-07-10T15:23:05;22.70;97.80
18888;DHT22;9576;47.792;9.628;2022-07-10T15:26:09;22.90;98.30
18888;DHT22;9576;47.792;9.628;2022-07-10T15:29:12;24.20;97.50
18888;DHT22;9576;47.792;9.628;2022-07-10T15:32:14;24.70;97.40
18888;DHT22;9576;47.792;9.628;2022-07-10T15:35:16;25.90;98.30
18888;DHT22;9576;47.792;9.628;2022-07-10T15:38:18;27.70;95.10
18888;DHT22;9576;47.792;9.628;2022-07-10T15:41:22;28.20;93.60
18888;DHT22;9576;47.792;9.628;2022-07-10T15:44:24;27.70;93.20
18888;DHT22;9576;47.792;9.628;2022-07-10T15:47:26;27.00;93.40
18888;DHT22;9576;47.792;9.628;2022-07-10T15:50:28;26.00;93.70
18888;DHT22;9576;47.792;9.628;2022-07-10T15:53:29;25.10;94.10
18888;DHT22;9576;47.792;9.628;2022-07-10T15:56:33;24.40;96.10
18888;DHT22;9576;47.792;9.628;2022-07-10T15:59:35;24.10;96.50
18888;DHT22;9576;47.792;9.628;2022-07-10T16:02:37;23.70;96.20
18888;DHT22;9576;47.792;9.628;2022-07-10T16:05:39;23.60;97.10
18888;DHT22;9576;47.792;9.628;2022-07-10T16:08:42;23.70;96.80
18888;DHT22;9576;47.792;9.628;2022-07-10T16:11:45;23.70;96.70
18888;DHT22;9576;47.792;9.628;2022-07-10T16:14:48;23.50;96.20
18888;DHT22;9576;47.792;9.628;2022-07-10T16:17:51;23.20;96.50
18888;DHT22;9576;47.792;9.628;2022-07-10T16:20:53;23.00;97.20
18888;DHT22;9576;47.792;9.628;2022-07-10T16:23:55;22.80;96.80
18888;DHT22;9576;47.792;9.628;2022-07-10T16:26:59;22.60;97.10
18888;DHT22;9576;47.792;9.628;2022-07-10T16:30:01;22.30;96.60
18888;DHT22;9576;47.792;9.628;2022-07-10T16:33:03;22.00;96.50
18888;DHT22;9576;47.792;9.628;2022-07-10T16:36:06;21.90;97.60
18888;DHT22;9576;47.792;9.628;2022-07-10T16:39:08;21.90;97.80
18888;DHT22;9576;47.792;9.628;2022-07-10T16:42:11;21.80;98.20
18888;DHT22;9576;47.792;9.628;2022-07-10T16:45:13;21.80;97.50
18888;DHT22;9576;47.792;9.628;2022-07-10T16:48:15;21.70;97.50
18888;DHT22;9576;47.792;9.628;2022-07-10T16:51:17;21.60;97.70
18888;DHT22;9576;47.792;9.628;2022-07-10T16:54:21;21.50;97.70
18888;DHT22;9576;47.792;9.628;2022-07-10T16:57:25;21.40;98.10
18888;DHT22;9576;47.792;9.628;2022-07-10T17:00:27;21.30;98.30
18888;DHT22;9576;47.792;9.628;2022-07-10T17:03:30;21.30;98.50
18888;DHT22;9576;47.792;9.628;2022-07-10T17:06:31;21.30;98.60
18888;DHT22;9576;47.792;9.628;2022-07-10T17:09:34;21.30;98.60
18888;DHT22;9576;47.792;9.628;2022-07-10T17:12:38;21.30;98.10
18888;DHT22;9576;47.792;9.628;2022-07-10T17:15:40;21.20;98.30
18888;DHT22;9576;47.792;9.628;2022-07-10T17:18:42;21.10;98.20
18888;DHT22;9576;47.792;9.628;2022-07-10T17:21:45;21.10;98.40
18888;DHT22;9576;47.792;9.628;2022-07-10T17:24:49;20.90;98.60
18888;DHT22;9576;47.792;9.628;2022-07-10T17:27:52;20.90;98.70
18888;DHT22;9576;47.792;9.628;2022-07-10T17:30:54;20.70;98.70
18888;DHT22;9576;47.792;9.628;2022-07-10T17:33:56;20.70;98.50
18888;DHT22;9576;47.792;9.628;2022-07-10T17:36:58;20.60;98.70
18888;DHT22;9576;47.792;9.628;2022-07-10T17:40:00;20.60;98.90
18888;DHT22;9576;47.792;9.628;2022-07-10T17:43:04;20.60;99.50
18888;DHT22;9576;47.792;9.628;2022-07-10T17:46:06;20.60;98.90
18888;DHT22;9576;47.792;9.628;2022-07-10T17:49:08;20.50;98.90
18888;DHT22;9576;47.792;9.628;2022-07-10T17:52:11;20.30;98.70
18888;DHT22;9576;47.792;9.628;2022-07-10T17:55:13;20.30;98.70
18888;DHT22;9576;47.792;9.628;2022-07-10T17:58:17;20.20;99.20
18888;DHT22;9576;47.792;9.628;2022-07-10T18:01:19;20.30;99.90
18888;DHT22;9576;47.792;9.628;2022-07-10T18:04:21;20.30;99.10
18888;DHT22;9576;47.792;9.628;2022-07-10T18:07:23;20.10;99.00
18888;DHT22;9576;47.792;9.628;2022-07-10T18:10:25;20.10;99.10
18888;DHT22;9576;47.792;9.628;2022-07-10T18:13:28;20.00;99.20
18888;DHT22;9576;47.792;9.628;2022-07-10T18:16:31;19.90;99.50
18888;DHT22;9576;47.792;9.628;2022-07-10T18:19:33;20.00;99.40
18888;DHT22;9576;47.792;9.628;2022-07-10T18:22:35;20.00;99.50
18888;DHT22;9576;47.792;9.628;2022-07-10T18:25:37;20.00;99.30
18888;DHT22;9576;47.792;9.628;2022-07-10T18:28:42;19.90;99.40
18888;DHT22;9576;47.792;9.628;2022-07-10T18:31:44;19.90;99.40
18888;DHT22;9576;47.792;9.628;2022-07-10T18:34:47;19.70;99.70
18888;DHT22;9576;47.792;9.628;2022-07-10T18:37:48;19.60;99.90
18888;DHT22;9576;47.792;9.628;2022-07-10T18:40:50;19.40;99.90
18888;DHT22;9576;47.792;9.628;2022-07-10T18:43:54;19.40;99.90
18888;DHT22;9576;47.792;9.628;2022-07-10T18:46:56;19.20;99.90
18888;DHT22;9576;47.792;9.628;2022-07-10T18:49:58;19.20;99.90
18888;DHT22;9576;47.792;9.628;2022-07-10T18:53:00;19.20;99.90
18888;DHT22;9576;47.792;9.628;2022-07-10T18:56:03;19.10;99.90
18888;DHT22;9576;47.792;9.628;2022-07-10T18:59:06;19.00;99.90
18888;DHT22;9576;47.792;9.628;2022-07-10T19:02:08;19.00;99.90
18888;DHT22;9576;47.792;9.628;2022-07-10T19:05:10;18.90;99.90
18888;DHT22;9576;47.792;9.628;2022-07-10T19:08:12;18.80;99.90
18888;DHT22;9576;47.792;9.628;2022-07-10T19:11:14;18.70;99.90
18888;DHT22;9576;47.792;9.628;2022-07-10T19:14:18;18.70;99.90
18888;DHT22;9576;47.792;9.628;2022-07-10T19:17:20;18.60;99.90
18888;DHT22;9576;47.792;9.628;2022-07-10T19:20:22;18.50;99.90
18888;DHT22;9576;47.792;9.628;2022-07-10T19:23:24;18.40;99.90
18888;DHT22;9576;47.792;9.628;2022-07-10T19:26:26;18.30;99.90
18888;DHT22;9576;47.792;9.628;2022-07-10T19:29:29;18.20;99.90
18888;DHT22;9576;47.792;9.628;2022-07-10T19:32:31;18.20;99.90
18888;DHT22;9576;47.792;9.628;2022-07-10T19:35:34;18.20;99.90